Terminal Aerodrome Forecast
Issued by NWS

Home | Current Version | Previous Version | Text Only | Print | Product List | Glossary On
Versions: 1 2 3 4 5 6 7 8 9 10 11 12 13 14 15 16 17 18 19 20 21
000
FTUS44 KBMX 270534
TAFTOI
TAF
KTOI 270534Z 2706/2806 22007KT P6SM VCSH SCT008 BKN025
      TEMPO 2706/2708 BKN008
     FM270800 34012G20KT P6SM VCSH OVC015
     FM271700 32012G18KT P6SM SCT025=

USA.gov is the U.S. government's official web portal to all federal, state and local government web resources and services.